Amesville, Ohio
Current Conditions -  °F | °C
As of 1:55 PM on Friday 31 Oct 2014 (Local Time) from KUNI Reporting Station
Drizzle Drizzle  
Wind Chill: 43°   Ceiling: 2400
Heat Index: 46°   Visibility: 10mi
Dew Point: 40°   Wind: 5mph
Humidity: 80%   Direction: 250°WSW
Pressure: 29.89"   Gusts: NA
Location:  39.4°N, 81.96°W
Report Text: KUNI 311755Z AUTO 25004KT 10SM -DZ SCT018 BKN024 OVC039 08/04 A2989 RMK AO2 60003 T00750043 10081 20036
Loading
Personal Weather Stations






























Interactive Weather Map
Tropical Storm Tracking
New forecast layout! Learn more

10-Day Weather Forecast

Advertisements
Track Severe Weather on mobile